Time;durP1;ratioP1;P1;durP2;ratioP2;P2;SDS_P1;SDS_P2;PMS_P1;PMS_P2;Temp;Humidity;BMP_temperature;BMP_pressure;BME280_temperature;BME280_humidity;BME280_pressure;Samples;Min_cycle;Max_cycle;Signal;HPM_P1;HPM_P2
2023/06/14 00:00:18;;;;;;;;;16.33;12.00;;;;;25.89;33.73;100593.53;6091314;23;45356;-66
2023/06/14 00:02:43;;;;;;;;;19.33;18.33;;;;;25.85;34.32;100590.00;6093222;23;45410;-66
2023/06/14 00:05:09;;;;;;;;;15.00;14.00;;;;;25.84;34.21;100599.19;6094396;23;47327;-61
2023/06/14 00:07:42;;;;;;;;;17.33;15.33;;;;;25.81;34.43;100595.69;6093683;23;45257;-67
2023/06/14 00:10:08;;;;;;;;;14.67;10.00;;;;;25.65;34.36;100577.09;6096378;23;45283;-68
2023/06/14 00:12:33;;;;;;;;;16.67;15.33;;;;;25.66;34.35;100603.53;6115582;23;45407;-65
2023/06/14 00:15:01;;;;;;;;;12.33;12.33;;;;;25.60;34.71;100602.88;6093238;23;46020;-66
2023/06/14 00:17:30;;;;;;;;;15.33;13.33;;;;;25.51;34.43;100585.88;6095829;23;45299;-64
2023/06/14 00:19:56;;;;;;;;;15.00;14.33;;;;;25.46;35.09;100596.09;6091327;23;45577;-62
2023/06/14 00:22:24;;;;;;;;;18.00;16.00;;;;;25.42;34.85;100605.34;6090940;23;45403;-61
2023/06/14 00:24:50;;;;;;;;;17.00;15.00;;;;;25.23;34.99;100575.03;6090457;23;45326;-63
2023/06/14 00:27:19;;;;;;;;;18.00;13.67;;;;;25.18;35.19;100572.47;6090120;23;45331;-58
2023/06/14 00:29:44;;;;;;;;;15.33;14.00;;;;;25.31;35.34;100594.81;6091386;23;45613;-66
2023/06/14 00:32:10;;;;;;;;;20.00;15.33;;;;;25.34;35.59;100607.47;6090775;23;45370;-62
2023/06/14 00:34:35;;;;;;;;;18.67;15.00;;;;;25.26;35.48;100598.63;6090449;23;46408;-58
2023/06/14 00:37:01;;;;;;;;;16.67;13.67;;;;;25.30;35.44;100603.97;6090296;23;45379;-59
2023/06/14 00:39:26;;;;;;;;;14.67;14.67;;;;;25.20;35.49;100597.03;6090379;23;45629;-60
2023/06/14 00:41:52;;;;;;;;;14.50;11.50;;;;;25.16;35.67;100589.88;6090375;23;45255;-57
2023/06/14 00:44:17;;;;;;;;;15.33;14.00;;;;;25.27;36.01;100614.13;6088405;23;47106;-64
2023/06/14 00:46:43;;;;;;;;;13.67;13.33;;;;;25.16;35.58;100595.34;6091590;23;45361;-65
2023/06/14 00:49:10;;;;;;;;;15.67;14.67;;;;;25.22;36.02;100614.25;6091695;23;45317;-62
2023/06/14 00:51:37;;;;;;;;;12.33;11.67;;;;;25.18;35.85;100612.59;6092543;23;45489;-59
2023/06/14 00:54:03;;;;;;;;;20.00;14.67;;;;;25.14;36.07;100614.53;6089402;23;46573;-66
2023/06/14 00:56:29;;;;;;;;;16.67;13.00;;;;;25.15;35.95;100624.53;6088955;23;45401;-61
2023/06/14 00:58:56;;;;;;;;;12.33;11.33;;;;;25.12;36.05;100613.69;6091870;23;45344;-62
2023/06/14 01:01:21;;;;;;;;;16.33;13.67;;;;;25.12;36.26;100616.44;6091592;23;45417;-58
2023/06/14 01:03:47;;;;;;;;;12.00;11.67;;;;;24.99;36.37;100601.44;6090343;23;45864;-57
2023/06/14 01:06:26;;;;;;;;;13.67;12.33;;;;;24.98;36.84;100607.88;6090849;23;45234;-60
2023/06/14 01:09:06;;;;;;;;;12.33;10.33;;;;;24.93;36.64;100620.78;6091008;23;45689;-72
2023/06/14 01:11:47;;;;;;;;;12.67;12.67;;;;;24.84;36.44;100608.34;6091223;23;45563;-61
2023/06/14 01:14:14;;;;;;;;;14.67;10.00;;;;;24.86;37.03;100608.28;6092053;23;46447;-65
2023/06/14 01:16:40;;;;;;;;;15.33;13.00;;;;;24.77;37.07;100602.19;6089717;23;45342;-61
2023/06/14 01:19:08;;;;;;;;;14.00;14.00;;;;;24.83;37.14;100604.72;6091512;23;45340;-61
2023/06/14 01:21:41;;;;;;;;;14.00;13.67;;;;;24.68;36.81;100587.97;6091824;23;45340;-70
2023/06/14 01:24:07;;;;;;;;;14.00;13.67;;;;;24.76;36.99;100608.59;6091016;23;46307;-61
2023/06/14 01:26:32;;;;;;;;;16.67;14.67;;;;;24.67;36.91;100599.84;6089009;23;45488;-60
2023/06/14 01:28:58;;;;;;;;;12.67;12.67;;;;;24.73;36.97;100618.75;6089519;23;45263;-57
2023/06/14 01:31:25;;;;;;;;;17.67;14.00;;;;;24.74;37.14;100626.00;6091687;23;45264;-65
2023/06/14 01:33:52;;;;;;;;;11.33;10.67;;;;;24.71;37.38;100629.72;6091901;23;45687;-64
2023/06/14 01:36:20;;;;;;;;;11.33;11.00;;;;;24.55;37.58;100610.25;6089864;23;45408;-59
2023/06/14 01:38:48;;;;;;;;;9.00;7.67;;;;;24.61;37.07;100620.06;6091343;23;45355;-61
2023/06/14 01:41:15;;;;;;;;;16.33;14.00;;;;;24.53;37.44;100616.66;6091030;23;45524;-65
2023/06/14 01:43:42;;;;;;;;;13.00;13.00;;;;;24.57;37.19;100621.13;6091450;23;46183;-57
2023/06/14 01:46:14;;;;;;;;;13.00;12.33;;;;;24.53;37.58;100616.66;6094010;23;45182;-57
2023/06/14 01:48:40;;;;;;;;;22.00;19.00;;;;;24.41;37.56;100598.84;6094551;23;45417;-57
2023/06/14 01:51:05;;;;;;;;;13.67;13.33;;;;;24.26;37.70;100581.13;6091454;23;45579;-72
2023/06/14 01:53:31;;;;;;;;;12.00;11.00;;;;;24.42;37.40;100611.56;6091914;23;45419;-72
2023/06/14 01:55:56;;;;;;;;;11.67;9.00;;;;;24.28;37.60;100601.97;6094481;23;45293;-65
2023/06/14 01:58:22;;;;;;;;;14.67;12.67;;;;;24.36;37.31;100617.22;6093140;23;45491;-68
2023/06/14 02:00:48;;;;;;;;;16.00;13.00;;;;;24.32;37.71;100624.63;6091433;23;45428;-66
2023/06/14 02:03:13;;;;;;;;;15.00;12.33;;;;;24.20;37.61;100608.63;6091583;23;45419;-61
2023/06/14 02:05:39;;;;;;;;;13.33;12.00;;;;;24.18;37.67;100610.53;6090481;23;45347;-59
2023/06/14 02:08:05;;;;;;;;;14.33;14.33;;;;;24.18;37.78;100614.13;6090893;23;45269;-64
2023/06/14 02:10:31;;;;;;;;;12.33;10.67;;;;;24.18;38.05;100618.72;6089262;23;45436;-67
2023/06/14 02:12:56;;;;;;;;;18.00;13.00;;;;;24.12;37.39;100613.44;6091432;23;46229;-65
2023/06/14 02:15:23;;;;;;;;;12.67;12.67;;;;;24.15;37.64;100618.81;6090809;23;45377;-66
2023/06/14 02:17:49;;;;;;;;;12.33;12.33;;;;;23.94;37.96;100584.91;6090944;23;45200;-68
2023/06/14 02:20:15;;;;;;;;;14.67;13.33;;;;;24.02;37.92;100616.50;6092514;23;45451;-62
2023/06/14 02:22:41;;;;;;;;;13.33;13.00;;;;;24.07;37.77;100629.97;6093218;23;45362;-55
2023/06/14 02:25:07;;;;;;;;;13.00;11.33;;;;;24.05;38.15;100626.41;6096069;23;45173;-62
2023/06/14 02:27:33;;;;;;;;;16.00;13.67;;;;;24.05;37.91;100630.00;6094494;23;45469;-64
2023/06/14 02:29:59;;;;;;;;;17.67;14.33;;;;;24.05;38.07;100632.75;6097352;23;45244;-55
2023/06/14 02:32:26;;;;;;;;;13.67;13.67;;;;;24.01;37.81;100624.72;6094996;23;45605;-64
2023/06/14 02:34:53;;;;;;;;;16.33;15.33;;;;;23.92;37.95;100607.69;6092068;23;45408;-56
2023/06/14 02:37:18;;;;;;;;;14.00;12.67;;;;;24.05;37.65;100632.75;6093850;23;45304;-59
2023/06/14 02:39:44;;;;;;;;;14.67;13.00;;;;;24.01;37.73;100636.53;6094220;23;45369;-63
2023/06/14 02:42:10;;;;;;;;;16.33;14.67;;;;;23.88;37.78;100618.75;6091760;23;45307;-61
2023/06/14 02:44:35;;;;;;;;;12.67;11.67;;;;;23.89;38.48;100635.06;6092412;23;45234;-66
2023/06/14 02:47:01;;;;;;;;;14.33;12.00;;;;;23.88;38.18;100636.00;6092564;23;45445;-56
2023/06/14 02:49:26;;;;;;;;;14.00;14.00;;;;;23.85;38.32;100625.19;6093372;23;45387;-61
2023/06/14 02:51:52;;;;;;;;;17.67;14.33;;;;;23.81;38.26;100615.28;6091551;23;45778;-75
2023/06/14 02:54:17;;;;;;;;;12.33;10.33;;;;;23.90;38.24;100638.69;6091829;23;45418;-56
2023/06/14 02:56:43;;;;;;;;;17.33;13.67;;;;;23.77;38.76;100627.22;6093535;23;45378;-57
2023/06/14 02:59:09;;;;;;;;;19.67;13.67;;;;;23.83;38.62;100634.38;6092557;23;45253;-60
2023/06/14 03:01:35;;;;;;;;;22.67;17.33;;;;;23.83;38.79;100643.44;6092380;23;46222;-69
2023/06/14 03:04:03;;;;;;;;;18.67;16.00;;;;;23.77;38.58;100635.41;6092563;23;45344;-58
2023/06/14 03:06:30;;;;;;;;;12.67;11.00;;;;;23.79;38.65;100633.53;6094116;23;45526;-58
2023/06/14 03:09:04;;;;;;;;;16.33;15.33;;;;;23.78;38.59;100645.38;6094203;23;45655;-59
2023/06/14 03:11:30;;;;;;;;;16.67;14.67;;;;;23.73;38.60;100637.31;6093342;23;45493;-63
2023/06/14 03:13:56;;;;;;;;;18.33;16.33;;;;;23.66;38.57;100632.09;6093550;23;45253;-63
2023/06/14 03:16:23;;;;;;;;;16.67;14.67;;;;;23.66;38.86;100635.72;6094542;23;45475;-56
2023/06/14 03:18:51;;;;;;;;;15.67;11.33;;;;;23.68;39.01;100652.94;6092938;23;45340;-54
2023/06/14 03:21:19;;;;;;;;;14.67;13.00;;;;;23.67;39.07;100655.72;6090488;23;48178;-58
2023/06/14 03:23:44;;;;;;;;;13.67;12.00;;;;;23.51;38.75;100637.06;6092536;23;45233;-57
2023/06/14 03:26:13;;;;;;;;;16.33;14.33;;;;;23.43;38.83;100630.94;6091789;23;45629;-57
2023/06/14 03:28:40;;;;;;;;;14.33;12.00;;;;;23.59;39.10;100660.50;6093152;23;45393;-60
2023/06/14 03:31:08;;;;;;;;;17.67;14.33;;;;;23.58;38.99;100667.78;6096931;23;46170;-73
2023/06/14 03:33:34;;;;;;;;;19.33;13.67;;;;;23.57;39.18;100679.63;6098360;23;45420;-72
2023/06/14 03:35:59;;;;;;;;;18.00;16.33;;;;;23.40;38.91;100651.97;6097574;23;45301;-60
2023/06/14 03:38:25;;;;;;;;;10.33;10.33;;;;;23.48;39.19;100667.16;6097771;23;45260;-59
2023/06/14 03:40:50;;;;;;;;;19.00;15.00;;;;;23.41;39.12;100657.34;6097611;23;45304;-58
2023/06/14 03:43:15;;;;;;;;;19.67;14.00;;;;;23.46;39.32;100679.03;6096812;23;45265;-63
2023/06/14 03:45:41;;;;;;;;;38.75;33.25;;;;;23.40;39.26;100671.94;6093561;23;45261;-60
2023/06/14 03:48:08;;;;;;;;;13.00;13.00;;;;;23.32;39.48;100673.97;6093207;23;45402;-63
2023/06/14 03:50:34;;;;;;;;;16.67;11.00;;;;;23.34;39.62;100683.88;6089768;23;47038;-58
2023/06/14 03:53:01;;;;;;;;;13.67;13.33;;;;;23.28;39.73;100684.06;6091622;23;45265;-57
2023/06/14 03:55:27;;;;;;;;;18.25;15.50;;;;;23.26;39.61;100693.22;6090915;23;45225;-63
2023/06/14 03:57:53;;;;;;;;;17.33;14.33;;;;;23.22;40.13;100694.25;6091067;23;45371;-57
2023/06/14 04:00:18;;;;;;;;;17.33;13.67;;;;;23.18;39.95;100699.78;6091638;23;46521;-60
2023/06/14 04:02:44;;;;;;;;;15.67;14.33;;;;;23.12;40.00;100683.59;6092345;23;45255;-60
2023/06/14 04:05:09;;;;;;;;;18.33;13.00;;;;;23.17;39.97;100694.38;6091526;23;45297;-64
2023/06/14 04:07:44;;;;;;;;;12.67;12.67;;;;;23.02;40.08;100667.50;6091368;23;45225;-57
2023/06/14 04:10:13;;;;;;;;;16.67;13.33;;;;;23.18;40.16;100701.59;6091266;23;45557;-62
2023/06/14 04:12:39;;;;;;;;;12.67;12.67;;;;;23.17;39.92;100697.97;6091592;23;45252;-67
2023/06/14 04:15:08;;;;;;;;;12.33;12.33;;;;;23.12;40.13;100699.06;6089412;23;45264;-59
2023/06/14 04:17:34;;;;;;;;;15.00;12.67;;;;;23.12;40.28;100697.22;6091352;23;45370;-64
2023/06/14 04:20:01;;;;;;;;;15.67;14.33;;;;;23.13;40.41;100706.28;6091358;23;45609;-63
2023/06/14 04:22:30;;;;;;;;;13.67;13.33;;;;;23.08;40.27;100692.78;6090457;23;45427;-57
2023/06/14 04:24:56;;;;;;;;;16.00;11.33;;;;;23.10;40.43;100709.06;6090813;23;45315;-60
2023/06/14 04:27:24;;;;;;;;;12.67;12.67;;;;;23.11;40.32;100699.97;6090299;23;45401;-57
2023/06/14 04:29:56;;;;;;;;;18.00;13.33;;;;;23.14;40.21;100713.53;6090258;23;46278;-61
2023/06/14 04:32:25;;;;;;;;;19.00;15.00;;;;;23.07;40.42;100707.34;6090164;23;46151;-57
2023/06/14 04:34:53;;;;;;;;;18.00;15.00;;;;;23.06;40.31;100713.69;6090368;23;45241;-58
2023/06/14 04:37:20;;;;;;;;;15.33;11.33;;;;;22.93;40.27;100693.13;6091020;23;45411;-60
2023/06/14 04:39:46;;;;;;;;;17.00;13.33;;;;;23.07;40.24;100725.53;6090740;23;45999;-57
2023/06/14 04:42:14;;;;;;;;;18.33;13.67;;;;;22.93;40.44;100704.94;6090038;23;45364;-59
2023/06/14 04:44:41;;;;;;;;;17.33;15.00;;;;;22.99;40.36;100725.69;6091002;23;45227;-57
2023/06/14 04:47:07;;;;;;;;;14.00;12.67;;;;;22.95;40.36;100715.78;6090839;23;45242;-62
2023/06/14 04:49:33;;;;;;;;;5.00;4.00;;;;;22.51;40.20;100645.16;6089724;23;45338;-58
2023/06/14 04:52:01;;;;;;;;;24.50;17.50;;;;;22.86;40.16;100707.88;6091107;23;45322;-57
2023/06/14 04:54:27;;;;;;;;;15.00;14.33;;;;;22.96;40.33;100731.22;6089570;23;45628;-56
2023/06/14 04:56:54;;;;;;;;;16.33;14.00;;;;;22.92;40.28;100718.63;6090792;23;45628;-62
2023/06/14 04:59:22;;;;;;;;;16.33;14.67;;;;;22.81;40.59;100707.97;6088643;23;45622;-57
2023/06/14 05:01:48;;;;;;;;;14.00;12.00;;;;;22.90;40.77;100737.72;6090207;23;45395;-62
2023/06/14 05:04:17;;;;;;;;;17.33;13.00;;;;;22.79;40.62;100718.00;6091183;23;45436;-63
2023/06/14 05:06:48;;;;;;;;;16.33;14.00;;;;;22.87;40.86;100732.34;6091896;23;45400;-63
2023/06/14 05:09:14;;;;;;;;;20.67;17.00;;;;;22.84;40.49;100721.53;6093054;23;45209;-58
2023/06/14 05:11:42;;;;;;;;;14.67;14.67;;;;;22.84;40.62;100713.34;6095225;23;45301;-68
2023/06/14 05:14:07;;;;;;;;;14.33;12.33;;;;;22.94;40.62;100733.97;6091812;23;45445;-59
2023/06/14 05:16:33;;;;;;;;;14.67;13.00;;;;;22.93;40.39;100729.47;6093544;23;45299;-59
2023/06/14 05:19:04;;;;;;;;;22.25;20.50;;;;;22.86;40.60;100714.19;6091041;23;46357;-62
2023/06/14 05:21:29;;;;;;;;;17.75;17.75;;;;;22.87;40.34;100726.91;6090210;23;45451;-58
2023/06/14 05:23:55;;;;;;;;;15.33;14.67;;;;;22.92;40.19;100724.94;6092085;23;45371;-58
2023/06/14 05:26:23;;;;;;;;;17.67;13.67;;;;;22.94;40.31;100731.25;6093066;23;45336;-57
2023/06/14 05:28:50;;;;;;;;;17.67;15.33;;;;;22.90;40.20;100737.72;6094702;23;45441;-60
2023/06/14 05:31:15;;;;;;;;;16.67;11.33;;;;;22.91;40.29;100739.50;6093974;23;45638;-61
2023/06/14 05:33:41;;;;;;;;;13.33;10.33;;;;;22.95;40.09;100738.50;6091379;23;45296;-63
2023/06/14 05:36:06;;;;;;;;;21.67;17.67;;;;;22.91;40.54;100741.34;6093682;23;45301;-60
2023/06/14 05:38:31;;;;;;;;;24.25;16.50;;;;;22.75;40.51;100710.84;6092772;23;46532;-58
2023/06/14 05:40:57;;;;;;;;;20.67;17.33;;;;;22.98;40.46;100743.88;6090401;23;45513;-58
2023/06/14 05:43:23;;;;;;;;;23.50;17.50;;;;;23.03;40.50;100748.28;6091258;23;45731;-69
2023/06/14 05:45:48;;;;;;;;;17.00;13.33;;;;;23.00;40.42;100754.72;6091395;23;45358;-66
2023/06/14 05:48:13;;;;;;;;;19.50;15.75;;;;;22.96;40.44;100737.53;6091643;23;45753;-58
2023/06/14 05:50:39;;;;;;;;;22.00;15.00;;;;;22.98;40.13;100741.16;6091462;23;45368;-58
2023/06/14 05:53:05;;;;;;;;;15.67;15.67;;;;;23.12;40.03;100753.56;6090947;23;45442;-56
2023/06/14 05:55:30;;;;;;;;;15.67;13.67;;;;;23.17;40.10;100752.50;6089993;23;45326;-58
2023/06/14 05:57:56;;;;;;;;;25.75;22.75;;;;;23.23;39.86;100748.72;6091502;23;45561;-58
2023/06/14 06:00:22;;;;;;;;;17.00;16.33;;;;;23.27;39.62;100742.25;6090976;23;45415;-59
2023/06/14 06:02:50;;;;;;;;;19.67;19.67;;;;;23.35;39.27;100753.84;6089308;23;45500;-59
2023/06/14 06:05:16;;;;;;;;;14.33;13.00;;;;;23.32;39.27;100739.41;6090544;23;45308;-58
2023/06/14 06:07:42;;;;;;;;;22.75;19.75;;;;;23.26;39.41;100720.47;6090550;23;46133;-58
2023/06/14 06:10:08;;;;;;;;;27.75;25.50;;;;;23.46;39.34;100755.38;6091576;23;45146;-60
2023/06/14 06:12:33;;;;;;;;;19.50;17.00;;;;;23.45;39.32;100748.16;6092186;23;45393;-56
2023/06/14 06:14:59;;;;;;;;;18.25;17.50;;;;;23.51;38.99;100750.69;6090582;23;45476;-58
2023/06/14 06:18:00;;;;;;;;;34.25;26.75;;;;;22.12;38.91;100500.94;6093499;23;45446;-59
2023/06/14 06:20:28;;;;;;;;;29.25;27.00;;;;;23.56;38.20;100735.13;6083515;23;45470;-57
2023/06/14 06:22:58;;;;;;;;;19.00;19.00;;;;;23.68;38.20;100762.06;6093480;23;45423;-59
2023/06/14 06:25:26;;;;;;;;;17.33;14.00;;;;;23.69;38.06;100747.47;6090481;23;45526;-59
2023/06/14 06:27:52;;;;;;;;;18.67;15.00;;;;;23.89;38.24;100763.31;6092770;23;45313;-59
2023/06/14 06:30:18;;;;;;;;;15.67;15.67;;;;;23.82;37.72;100753.50;6090832;23;45723;-58
2023/06/14 06:32:43;;;;;;;;;30.75;25.50;;;;;23.98;37.56;100762.16;6091686;23;45453;-57
2023/06/14 06:35:10;;;;;;;;;23.00;21.25;;;;;24.03;37.71;100776.56;6091420;23;45508;-58
2023/06/14 06:37:42;;;;;;;;;22.75;19.50;;;;;24.08;37.08;100765.50;6090935;23;47338;-58
2023/06/14 06:40:09;;;;;;;;;46.00;38.75;;;;;24.13;37.13;100777.19;6090235;23;45422;-63
2023/06/14 06:42:35;;;;;;;;;33.00;26.75;;;;;24.22;36.74;100773.28;6090895;23;45363;-57
2023/06/14 06:45:04;;;;;;;;;19.00;16.00;;;;;24.21;36.57;100761.47;6091225;23;45291;-61
2023/06/14 06:47:30;;;;;;;;;23.25;18.25;;;;;24.09;36.67;100729.97;6095133;23;46850;-58
2023/06/14 06:49:55;;;;;;;;;27.25;25.00;;;;;24.29;36.29;100758.53;6103519;23;44968;-67
2023/06/14 06:52:21;;;;;;;;;19.00;16.67;;;;;24.27;36.24;100744.91;6107945;23;44811;-59
2023/06/14 06:54:46;;;;;;;;;27.33;18.33;;;;;24.22;35.82;100744.16;6091767;23;45210;-62
2023/06/14 06:57:12;;;;;;;;;18.50;18.50;;;;;24.43;35.37;100783.53;6088078;23;45379;-65
2023/06/14 06:59:37;;;;;;;;;31.25;28.75;;;;;24.43;35.05;100769.88;6091196;23;45367;-64
2023/06/14 07:02:03;;;;;;;;;23.50;18.25;;;;;24.57;34.52;100785.00;6091194;23;45578;-66
2023/06/14 07:04:29;;;;;;;;;26.67;18.33;;;;;24.46;34.61;100760.72;6089832;23;45712;-61
2023/06/14 07:06:55;;;;;;;;;18.00;16.33;;;;;24.67;34.47;100782.88;6089021;23;45945;-63
2023/06/14 07:09:20;;;;;;;;;16.33;15.33;;;;;24.69;34.37;100797.38;6094214;23;45230;-66
2023/06/14 07:11:47;;;;;;;;;18.67;16.33;;;;;24.64;34.67;100772.94;6093601;23;45365;-63
2023/06/14 07:14:13;;;;;;;;;14.67;13.00;;;;;24.71;33.82;100780.00;6087850;23;45315;-63
2023/06/14 07:16:38;;;;;;;;;18.33;14.33;;;;;24.79;33.54;100799.75;6087171;23;47860;-62
2023/06/14 07:19:04;;;;;;;;;15.33;13.33;;;;;24.78;33.65;100788.88;6089622;23;45502;-62
2023/06/14 07:21:30;;;;;;;;;14.33;13.33;;;;;24.91;33.86;100803.06;6090071;23;45350;-65
2023/06/14 07:23:56;;;;;;;;;15.67;15.00;;;;;25.00;33.68;100813.69;6087509;23;45210;-65
2023/06/14 07:26:22;;;;;;;;;18.33;14.67;;;;;25.06;33.49;100809.84;6087351;23;46107;-64
2023/06/14 07:28:48;;;;;;;;;18.33;15.00;;;;;25.15;33.57;100807.72;6090337;23;45391;-65
2023/06/14 07:31:18;;;;;;;;;15.33;14.33;;;;;25.25;33.71;100821.09;6089262;23;45401;-62
2023/06/14 07:33:47;;;;;;;;;15.67;14.33;;;;;25.12;33.18;100790.53;6090266;23;45520;-64
2023/06/14 07:36:12;;;;;;;;;17.33;16.67;;;;;25.34;33.20;100824.44;6088567;23;46114;-63
2023/06/14 07:38:37;;;;;;;;;15.67;14.67;;;;;25.42;33.17;100818.69;6088603;23;45443;-63
2023/06/14 07:41:03;;;;;;;;;17.67;12.67;;;;;25.56;32.79;100829.19;6089534;23;45408;-64
2023/06/14 07:43:29;;;;;;;;;22.33;18.33;;;;;25.64;32.61;100828.88;6089092;23;46268;-62
2023/06/14 07:45:55;;;;;;;;;16.67;13.67;;;;;25.65;32.78;100831.56;6088785;23;45356;-64
2023/06/14 07:48:20;;;;;;;;;20.33;16.67;;;;;25.71;32.36;100834.09;6088259;23;45287;-66
2023/06/14 07:50:46;;;;;;;;;22.25;18.50;;;;;25.70;32.46;100826.84;6088649;23;45284;-62
2023/06/14 07:53:12;;;;;;;;;35.25;31.50;;;;;25.79;32.71;100830.19;6087789;23;45522;-63
2023/06/14 07:55:37;;;;;;;;;19.67;18.33;;;;;25.89;32.78;100820.72;6088615;23;46432;-63
2023/06/14 07:58:10;;;;;;;;;20.67;16.67;;;;;25.96;31.62;100826.91;6089587;23;45598;-63
2023/06/14 08:00:35;;;;;;;;;18.00;14.00;;;;;25.85;31.54;100814.44;6089771;23;45437;-65
2023/06/14 08:03:01;;;;;;;;;20.33;15.00;;;;;26.05;31.52;100838.41;6089304;23;45602;-65
2023/06/14 08:05:27;;;;;;;;;22.00;17.67;;;;;25.99;31.14;100813.09;6088830;23;46120;-63
2023/06/14 08:07:59;;;;;;;;;12.33;10.00;;;;;26.13;31.45;100827.16;6084203;23;45475;-65
2023/06/14 08:10:25;;;;;;;;;16.00;14.67;;;;;26.16;31.18;100807.88;6112541;23;45334;-63
2023/06/14 08:12:50;;;;;;;;;23.33;16.67;;;;;26.42;31.23;100827.91;6087850;23;45363;-62
2023/06/14 08:15:17;;;;;;;;;16.00;13.00;;;;;26.41;31.16;100816.03;6086100;23;47130;-64
2023/06/14 08:17:43;;;;;;;;;10.67;10.67;;;;;26.57;30.77;100827.31;6087154;23;45427;-62
2023/06/14 08:20:10;;;;;;;;;16.33;12.33;;;;;26.55;30.24;100829.22;6088733;23;45224;-64
2023/06/14 08:22:36;;;;;;;;;19.33;19.00;;;;;26.66;30.62;100829.75;6090199;23;45320;-66
2023/06/14 08:25:01;;;;;;;;;17.33;17.33;;;;;26.83;30.22;100831.81;6086077;23;47270;-63
2023/06/14 08:27:27;;;;;;;;;11.67;11.67;;;;;26.93;30.33;100820.47;6089433;23;45226;-64
2023/06/14 08:29:53;;;;;;;;;21.33;15.00;;;;;27.09;29.94;100837.19;6086046;23;45357;-65
2023/06/14 08:32:18;;;;;;;;;14.33;14.00;;;;;26.66;29.49;100750.25;6088500;23;45181;-67
2023/06/14 08:34:44;;;;;;;;;19.00;16.00;;;;;27.24;28.80;100830.16;6113550;23;46838;-71
2023/06/14 08:37:09;;;;;;;;;23.00;19.33;;;;;27.30;28.42;100829.94;6090810;23;45555;-70
2023/06/14 08:39:35;;;;;;;;;16.00;13.00;;;;;27.31;28.01;100824.41;6112885;23;45277;-70
2023/06/14 08:42:02;;;;;;;;;17.00;15.33;;;;;27.47;28.09;100829.22;6086880;23;45315;-64
2023/06/14 08:44:27;;;;;;;;;13.33;13.00;;;;;27.13;28.47;100773.03;6090231;23;45780;-64
2023/06/14 08:46:59;;;;;;;;;13.33;11.00;;;;;27.64;29.03;100839.50;6089329;23;45447;-67
2023/06/14 08:49:24;;;;;;;;;18.67;16.33;;;;;27.62;27.52;100822.19;6090742;23;45668;-66
2023/06/14 08:51:58;;;;;;;;;12.67;12.00;;;;;27.61;26.03;100818.56;6086982;23;45558;-65
2023/06/14 08:54:29;;;;;;;;;12.67;11.67;;;;;27.83;26.77;100845.06;6113085;23;45610;-67
2023/06/14 08:56:57;;;;;;;;;10.33;9.67;;;;;27.82;26.38;100826.78;6084483;23;45526;-64
2023/06/14 08:59:26;;;;;;;;;16.00;14.67;;;;;27.82;26.58;100821.28;6088900;23;45465;-69
2023/06/14 09:01:52;;;;;;;;;15.67;13.00;;;;;27.92;26.67;100826.31;6111027;23;45287;-64
2023/06/14 09:04:19;;;;;;;;;13.33;13.33;;;;;28.11;25.83;100851.16;6087034;23;47469;-63
2023/06/14 09:06:45;;;;;;;;;15.00;12.00;;;;;28.16;27.24;100841.78;6090327;23;45289;-67
2023/06/14 09:09:11;;;;;;;;;16.00;12.67;;;;;28.26;27.16;100827.59;6088320;23;45414;-65
2023/06/14 09:11:36;;;;;;;;;8.67;8.33;;;;;28.40;25.80;100831.53;6088263;23;45182;-70
2023/06/14 09:14:02;;;;;;;;;17.67;15.67;;;;;28.44;25.39;100828.56;6090076;23;46264;-65
2023/06/14 09:16:28;;;;;;;;;12.67;12.67;;;;;28.58;24.74;100841.69;6088935;23;45405;-64
2023/06/14 09:18:53;;;;;;;;;18.00;15.67;;;;;28.62;24.36;100837.81;6090223;23;45206;-65
2023/06/14 09:21:20;;;;;;;;;16.00;11.00;;;;;28.67;24.11;100843.09;6090594;23;46121;-63
2023/06/14 09:23:47;;;;;;;;;12.00;12.00;;;;;28.70;25.96;100836.59;6090777;23;45289;-66
2023/06/14 09:26:19;;;;;;;;;11.67;11.67;;;;;28.77;24.44;100849.06;6093860;23;45334;-64
2023/06/14 09:28:46;;;;;;;;;11.33;11.33;;;;;28.70;23.50;100833.84;6091306;23;45478;-69
2023/06/14 09:31:17;;;;;;;;;14.00;12.33;;;;;28.72;23.42;100821.78;6113252;23;45399;-65
2023/06/14 09:33:47;;;;;;;;;13.67;12.33;;;;;28.82;23.40;100841.47;6087878;23;46913;-62
2023/06/14 09:36:18;;;;;;;;;16.33;12.33;;;;;28.77;22.55;100838.94;6087424;23;45465;-64
2023/06/14 09:39:00;;;;;;;;;11.33;10.00;;;;;28.82;22.60;100846.97;6088222;23;45334;-68
2023/06/14 09:41:42;;;;;;;;;12.67;12.67;;;;;28.86;23.08;100848.63;6091197;23;45272;-62
2023/06/14 09:44:09;;;;;;;;;11.67;10.67;;;;;28.86;21.67;100843.13;6089853;23;45189;-62
2023/06/14 09:46:36;;;;;;;;;17.00;12.33;;;;;28.89;22.99;100850.31;6091170;23;45223;-66
2023/06/14 09:49:05;;;;;;;;;15.00;11.67;;;;;28.94;23.87;100851.91;6087199;23;45287;-65
2023/06/14 09:51:31;;;;;;;;;18.00;12.67;;;;;28.57;21.75;100776.66;6089362;23;45343;-63
2023/06/14 09:54:04;;;;;;;;;10.33;8.67;;;;;29.01;21.22;100846.97;6090879;23;45844;-63
2023/06/14 09:56:41;;;;;;;;;13.67;12.33;;;;;29.00;22.13;100839.69;6089426;23;45371;-62
2023/06/14 09:59:09;;;;;;;;;18.00;14.00;;;;;29.03;20.54;100850.53;6089820;23;45352;-64
2023/06/14 10:01:41;;;;;;;;;17.33;15.33;;;;;29.03;20.99;100851.44;6087815;23;45303;-66
2023/06/14 10:04:07;;;;;;;;;13.67;13.33;;;;;29.00;22.46;100834.19;6085981;23;46297;-67
2023/06/14 10:06:37;;;;;;;;;16.67;16.67;;;;;29.14;21.58;100859.16;6089828;23;45527;-62
2023/06/14 10:09:05;;;;;;;;;11.67;11.67;;;;;29.17;21.30;100859.03;6089228;23;45321;-66
2023/06/14 10:11:31;;;;;;;;;19.75;17.75;;;;;29.10;20.73;100852.00;6063757;23;45547;-67
2023/06/14 10:13:57;;;;;;;;;16.33;16.00;;;;;29.20;21.46;100866.25;6085398;23;47610;-69
2023/06/14 10:16:32;;;;;;;;;16.00;12.00;;;;;29.21;20.65;100859.78;6091485;23;45402;-71
2023/06/14 10:19:21;;;;;;;;;16.33;13.33;;;;;29.22;21.21;100854.19;6090876;23;45645;-67
2023/06/14 10:21:48;;;;;;;;;14.67;14.33;;;;;29.28;22.15;100860.38;6086999;23;45498;-68
2023/06/14 10:24:18;;;;;;;;;16.00;12.67;;;;;29.28;21.25;100858.50;6086973;23;45520;-68
2023/06/14 10:26:56;;;;;;;;;11.00;11.00;;;;;29.27;20.65;100858.56;6089165;23;45316;-69
2023/06/14 10:29:22;;;;;;;;;22.00;19.67;;;;;29.26;20.65;100852.19;6089932;23;45205;-67
2023/06/14 10:31:49;;;;;;;;;12.00;11.00;;;;;29.26;20.47;100854.94;6085863;23;45461;-68
2023/06/14 10:34:25;;;;;;;;;19.67;19.00;;;;;29.10;20.56;100830.00;6089778;23;45492;-67
2023/06/14 10:37:06;;;;;;;;;17.33;17.00;;;;;29.31;21.24;100855.59;6090329;23;45421;-68
2023/06/14 10:39:36;;;;;;;;;11.67;9.67;;;;;29.37;20.96;100847.03;6090448;23;45293;-67
2023/06/14 10:42:04;;;;;;;;;14.33;12.00;;;;;29.23;21.15;100828.44;6088633;23;45492;-68
2023/06/14 10:44:29;;;;;;;;;13.00;12.00;;;;;29.35;21.57;100840.72;6088483;23;48530;-65
2023/06/14 10:46:57;;;;;;;;;16.67;15.00;;;;;29.25;21.20;100836.63;6090362;23;45397;-66
2023/06/14 10:49:42;;;;;;;;;14.00;13.67;;;;;29.22;21.77;100834.94;6089553;23;45467;-65
2023/06/14 10:52:11;;;;;;;;;14.00;14.00;;;;;29.20;22.17;100828.63;6082932;23;45525;-71
2023/06/14 10:54:37;;;;;;;;;13.50;12.50;;;;;29.33;21.94;100842.63;6090897;23;45610;-71
2023/06/14 10:57:07;;;;;;;;;14.00;12.33;;;;;29.34;22.19;100843.56;6091232;23;45239;-69
2023/06/14 10:59:32;;;;;;;;;15.00;11.00;;;;;29.32;21.94;100840.88;6086977;23;45627;-69
2023/06/14 11:02:20;;;;;;;;;10.33;10.33;;;;;29.37;20.62;100838.78;6090886;23;45488;-68
2023/06/14 11:04:52;;;;;;;;;15.67;11.33;;;;;29.41;21.08;100842.25;6089668;23;46427;-67
2023/06/14 11:07:26;;;;;;;;;14.00;12.00;;;;;29.39;21.18;100833.19;6089810;23;45250;-67
2023/06/14 11:10:11;;;;;;;;;14.33;14.33;;;;;29.37;21.04;100832.38;6089356;23;45266;-67